sensor_id;sensor_type;location;lat;lon;timestamp;P1;durP1;ratioP1;P2;durP2;ratioP2
69172;SDS011;56280;49.662;8.408;2023-06-22T00:00:18;11.80;;;8.40;;
69172;SDS011;56280;49.662;8.408;2023-06-22T00:02:44;12.05;;;7.90;;
69172;SDS011;56280;49.662;8.408;2023-06-22T00:05:09;11.83;;;8.10;;
69172;SDS011;56280;49.662;8.408;2023-06-22T00:07:35;11.80;;;8.40;;
69172;SDS011;56280;49.662;8.408;2023-06-22T00:10:00;11.70;;;8.37;;
69172;SDS011;56280;49.662;8.408;2023-06-22T00:12:25;13.17;;;8.40;;
69172;SDS011;56280;49.662;8.408;2023-06-22T00:14:50;11.60;;;8.23;;
69172;SDS011;56280;49.662;8.408;2023-06-22T00:17:16;12.47;;;8.40;;
69172;SDS011;56280;49.662;8.408;2023-06-22T00:19:41;13.07;;;9.00;;
69172;SDS011;56280;49.662;8.408;2023-06-22T00:22:07;11.30;;;9.07;;
69172;SDS011;56280;49.662;8.408;2023-06-22T00:27:15;11.47;;;8.77;;
69172;SDS011;56280;49.662;8.408;2023-06-22T00:32:37;13.18;;;9.48;;
69172;SDS011;56280;49.662;8.408;2023-06-22T00:35:12;14.43;;;10.02;;
69172;SDS011;56280;49.662;8.408;2023-06-22T00:37:38;15.73;;;10.35;;
69172;SDS011;56280;49.662;8.408;2023-06-22T00:40:25;14.55;;;10.57;;
69172;SDS011;56280;49.662;8.408;2023-06-22T00:43:35;14.65;;;10.85;;
69172;SDS011;56280;49.662;8.408;2023-06-22T00:46:10;14.83;;;10.97;;
69172;SDS011;56280;49.662;8.408;2023-06-22T00:48:42;14.95;;;11.20;;
69172;SDS011;56280;49.662;8.408;2023-06-22T00:51:13;14.82;;;10.95;;
69172;SDS011;56280;49.662;8.408;2023-06-22T00:53:42;13.93;;;10.93;;
69172;SDS011;56280;49.662;8.408;2023-06-22T00:56:08;14.53;;;10.60;;
69172;SDS011;56280;49.662;8.408;2023-06-22T00:58:34;24.33;;;12.90;;
69172;SDS011;56280;49.662;8.408;2023-06-22T01:01:01;24.73;;;14.23;;
69172;SDS011;56280;49.662;8.408;2023-06-22T05:09:31;22.25;;;15.88;;
69172;SDS011;56280;49.662;8.408;2023-06-22T05:11:58;22.42;;;15.27;;
69172;SDS011;56280;49.662;8.408;2023-06-22T05:14:25;19.17;;;14.35;;
69172;SDS011;56280;49.662;8.408;2023-06-22T05:16:50;26.00;;;15.50;;
69172;SDS011;56280;49.662;8.408;2023-06-22T05:19:17;22.88;;;15.75;;
69172;SDS011;56280;49.662;8.408;2023-06-22T05:21:42;22.67;;;15.67;;
69172;SDS011;56280;49.662;8.408;2023-06-22T05:24:08;22.07;;;15.70;;
69172;SDS011;56280;49.662;8.408;2023-06-22T05:26:34;22.03;;;14.43;;
69172;SDS011;56280;49.662;8.408;2023-06-22T05:29:00;23.70;;;15.40;;
69172;SDS011;56280;49.662;8.408;2023-06-22T05:31:27;26.33;;;15.50;;
69172;SDS011;56280;49.662;8.408;2023-06-22T05:33:53;22.73;;;15.02;;
69172;SDS011;56280;49.662;8.408;2023-06-22T05:36:19;24.05;;;14.48;;
69172;SDS011;56280;49.662;8.408;2023-06-22T05:38:46;20.92;;;13.45;;
69172;SDS011;56280;49.662;8.408;2023-06-22T05:41:12;19.10;;;13.48;;
69172;SDS011;56280;49.662;8.408;2023-06-22T05:43:38;19.17;;;13.00;;
69172;SDS011;56280;49.662;8.408;2023-06-22T05:46:04;19.63;;;13.30;;
69172;SDS011;56280;49.662;8.408;2023-06-22T05:48:30;21.40;;;13.60;;
69172;SDS011;56280;49.662;8.408;2023-06-22T05:50:55;19.15;;;13.10;;
69172;SDS011;56280;49.662;8.408;2023-06-22T05:53:21;17.30;;;13.13;;
69172;SDS011;56280;49.662;8.408;2023-06-22T05:55:46;19.00;;;12.63;;
69172;SDS011;56280;49.662;8.408;2023-06-22T05:58:11;18.43;;;13.50;;
69172;SDS011;56280;49.662;8.408;2023-06-22T06:00:38;16.65;;;12.02;;
69172;SDS011;56280;49.662;8.408;2023-06-22T06:03:03;17.00;;;12.87;;
69172;SDS011;56280;49.662;8.408;2023-06-22T06:05:29;15.48;;;12.00;;
69172;SDS011;56280;49.662;8.408;2023-06-22T06:07:55;16.25;;;12.05;;
69172;SDS011;56280;49.662;8.408;2023-06-22T06:10:21;14.83;;;12.10;;
69172;SDS011;56280;49.662;8.408;2023-06-22T06:12:46;16.60;;;11.47;;
69172;SDS011;56280;49.662;8.408;2023-06-22T06:15:11;16.70;;;11.73;;
69172;SDS011;56280;49.662;8.408;2023-06-22T06:17:44;15.27;;;11.23;;
69172;SDS011;56280;49.662;8.408;2023-06-22T06:20:13;15.70;;;11.57;;
69172;SDS011;56280;49.662;8.408;2023-06-22T06:22:39;17.15;;;11.90;;
69172;SDS011;56280;49.662;8.408;2023-06-22T06:25:05;14.83;;;11.13;;
69172;SDS011;56280;49.662;8.408;2023-06-22T06:27:30;14.25;;;11.05;;
69172;SDS011;56280;49.662;8.408;2023-06-22T06:29:56;14.70;;;11.17;;
69172;SDS011;56280;49.662;8.408;2023-06-22T06:32:21;16.40;;;11.67;;
69172;SDS011;56280;49.662;8.408;2023-06-22T06:34:46;15.57;;;10.97;;
69172;SDS011;56280;49.662;8.408;2023-06-22T06:37:12;14.13;;;10.87;;
69172;SDS011;56280;49.662;8.408;2023-06-22T06:39:37;14.47;;;11.63;;
69172;SDS011;56280;49.662;8.408;2023-06-22T06:42:02;13.70;;;11.00;;
69172;SDS011;56280;49.662;8.408;2023-06-22T06:44:28;14.68;;;11.52;;
69172;SDS011;56280;49.662;8.408;2023-06-22T06:46:54;13.33;;;10.43;;
69172;SDS011;56280;49.662;8.408;2023-06-22T06:49:19;15.17;;;11.17;;
69172;SDS011;56280;49.662;8.408;2023-06-22T06:51:44;13.67;;;11.27;;
69172;SDS011;56280;49.662;8.408;2023-06-22T06:54:09;15.90;;;11.30;;
69172;SDS011;56280;49.662;8.408;2023-06-22T06:56:35;15.07;;;11.10;;
69172;SDS011;56280;49.662;8.408;2023-06-22T06:59:00;14.13;;;10.47;;
69172;SDS011;56280;49.662;8.408;2023-06-22T07:01:26;13.93;;;10.63;;
69172;SDS011;56280;49.662;8.408;2023-06-22T07:03:51;13.37;;;11.13;;
69172;SDS011;56280;49.662;8.408;2023-06-22T07:06:16;13.60;;;11.37;;
69172;SDS011;56280;49.662;8.408;2023-06-22T07:08:42;14.20;;;10.13;;
69172;SDS011;56280;49.662;8.408;2023-06-22T07:11:07;12.82;;;10.13;;
69172;SDS011;56280;49.662;8.408;2023-06-22T07:13:33;11.97;;;9.80;;
69172;SDS011;56280;49.662;8.408;2023-06-22T07:15:58;12.73;;;10.33;;
69172;SDS011;56280;49.662;8.408;2023-06-22T07:18:24;12.87;;;9.80;;
69172;SDS011;56280;49.662;8.408;2023-06-22T07:20:49;13.20;;;9.70;;
69172;SDS011;56280;49.662;8.408;2023-06-22T07:23:14;12.27;;;9.87;;
69172;SDS011;56280;49.662;8.408;2023-06-22T07:25:40;15.67;;;9.60;;
69172;SDS011;56280;49.662;8.408;2023-06-22T07:28:06;13.52;;;10.65;;
69172;SDS011;56280;49.662;8.408;2023-06-22T07:30:32;12.98;;;11.00;;
69172;SDS011;56280;49.662;8.408;2023-06-22T07:32:59;15.35;;;11.73;;
69172;SDS011;56280;49.662;8.408;2023-06-22T07:35:29;14.52;;;10.52;;
69172;SDS011;56280;49.662;8.408;2023-06-22T07:37:55;12.23;;;9.77;;
69172;SDS011;56280;49.662;8.408;2023-06-22T07:40:20;16.00;;;9.80;;
69172;SDS011;56280;49.662;8.408;2023-06-22T07:42:48;13.00;;;9.40;;
69172;SDS011;56280;49.662;8.408;2023-06-22T07:45:16;12.47;;;9.80;;
69172;SDS011;56280;49.662;8.408;2023-06-22T07:47:42;12.20;;;9.18;;
69172;SDS011;56280;49.662;8.408;2023-06-22T07:50:07;12.20;;;9.37;;
69172;SDS011;56280;49.662;8.408;2023-06-22T07:52:33;12.10;;;9.00;;
69172;SDS011;56280;49.662;8.408;2023-06-22T07:54:58;11.90;;;9.20;;
69172;SDS011;56280;49.662;8.408;2023-06-22T07:57:24;11.40;;;8.80;;
69172;SDS011;56280;49.662;8.408;2023-06-22T07:59:57;10.57;;;9.15;;
69172;SDS011;56280;49.662;8.408;2023-06-22T08:02:25;13.25;;;9.75;;
69172;SDS011;56280;49.662;8.408;2023-06-22T08:04:54;12.10;;;9.35;;
69172;SDS011;56280;49.662;8.408;2023-06-22T08:07:19;12.27;;;9.77;;
69172;SDS011;56280;49.662;8.408;2023-06-22T08:09:48;12.33;;;9.93;;
69172;SDS011;56280;49.662;8.408;2023-06-22T08:12:14;12.27;;;9.70;;
69172;SDS011;56280;49.662;8.408;2023-06-22T08:14:41;12.43;;;9.20;;
69172;SDS011;56280;49.662;8.408;2023-06-22T08:17:08;12.00;;;9.73;;
69172;SDS011;56280;49.662;8.408;2023-06-22T08:19:33;10.90;;;9.00;;
69172;SDS011;56280;49.662;8.408;2023-06-22T08:21:58;11.93;;;9.50;;
69172;SDS011;56280;49.662;8.408;2023-06-22T08:24:24;11.27;;;9.33;;
69172;SDS011;56280;49.662;8.408;2023-06-22T08:26:50;12.30;;;9.73;;
69172;SDS011;56280;49.662;8.408;2023-06-22T08:29:19;12.18;;;9.43;;
69172;SDS011;56280;49.662;8.408;2023-06-22T08:31:47;11.57;;;9.27;;
69172;SDS011;56280;49.662;8.408;2023-06-22T08:34:13;11.90;;;9.20;;
69172;SDS011;56280;49.662;8.408;2023-06-22T08:36:38;12.77;;;9.73;;
69172;SDS011;56280;49.662;8.408;2023-06-22T08:39:06;11.90;;;10.07;;
69172;SDS011;56280;49.662;8.408;2023-06-22T08:41:32;12.33;;;9.40;;
69172;SDS011;56280;49.662;8.408;2023-06-22T08:43:57;10.87;;;9.37;;
69172;SDS011;56280;49.662;8.408;2023-06-22T08:46:23;11.83;;;9.50;;
69172;SDS011;56280;49.662;8.408;2023-06-22T08:48:55;11.32;;;9.75;;
69172;SDS011;56280;49.662;8.408;2023-06-22T08:51:20;11.40;;;9.32;;
69172;SDS011;56280;49.662;8.408;2023-06-22T08:53:46;11.85;;;9.45;;
69172;SDS011;56280;49.662;8.408;2023-06-22T08:56:11;12.67;;;9.40;;
69172;SDS011;56280;49.662;8.408;2023-06-22T08:58:37;11.00;;;8.67;;
69172;SDS011;56280;49.662;8.408;2023-06-22T09:01:02;11.00;;;9.27;;
69172;SDS011;56280;49.662;8.408;2023-06-22T09:03:27;12.77;;;8.90;;
69172;SDS011;56280;49.662;8.408;2023-06-22T09:05:52;10.67;;;8.80;;
69172;SDS011;56280;49.662;8.408;2023-06-22T09:08:18;11.97;;;8.30;;
69172;SDS011;56280;49.662;8.408;2023-06-22T09:10:43;10.17;;;8.30;;
69172;SDS011;56280;49.662;8.408;2023-06-22T09:13:08;11.13;;;7.80;;
69172;SDS011;56280;49.662;8.408;2023-06-22T09:15:34;10.63;;;8.30;;
69172;SDS011;56280;49.662;8.408;2023-06-22T09:17:59;12.00;;;8.40;;
69172;SDS011;56280;49.662;8.408;2023-06-22T09:20:25;10.07;;;7.90;;
69172;SDS011;56280;49.662;8.408;2023-06-22T09:22:50;10.17;;;8.10;;
69172;SDS011;56280;49.662;8.408;2023-06-22T09:25:15;10.37;;;7.40;;
69172;SDS011;56280;49.662;8.408;2023-06-22T09:27:41;10.30;;;7.87;;
69172;SDS011;56280;49.662;8.408;2023-06-22T09:30:06;9.73;;;7.67;;
69172;SDS011;56280;49.662;8.408;2023-06-22T09:32:32;10.00;;;7.80;;
69172;SDS011;56280;49.662;8.408;2023-06-22T09:34:57;8.83;;;7.30;;
69172;SDS011;56280;49.662;8.408;2023-06-22T09:37:22;9.70;;;7.80;;
69172;SDS011;56280;49.662;8.408;2023-06-22T09:39:48;9.70;;;7.70;;
69172;SDS011;56280;49.662;8.408;2023-06-22T09:42:13;11.57;;;7.77;;
69172;SDS011;56280;49.662;8.408;2023-06-22T09:44:38;9.47;;;7.60;;
69172;SDS011;56280;49.662;8.408;2023-06-22T09:47:04;10.20;;;7.87;;
69172;SDS011;56280;49.662;8.408;2023-06-22T09:49:30;10.40;;;7.80;;
69172;SDS011;56280;49.662;8.408;2023-06-22T09:51:55;11.23;;;8.13;;
69172;SDS011;56280;49.662;8.408;2023-06-22T09:54:20;10.67;;;7.67;;
69172;SDS011;56280;49.662;8.408;2023-06-22T09:56:46;9.80;;;7.80;;
69172;SDS011;56280;49.662;8.408;2023-06-22T09:59:11;10.53;;;8.07;;
69172;SDS011;56280;49.662;8.408;2023-06-22T10:01:36;11.37;;;7.70;;
69172;SDS011;56280;49.662;8.408;2023-06-22T10:04:02;11.53;;;7.57;;
69172;SDS011;56280;49.662;8.408;2023-06-22T10:06:27;10.38;;;7.68;;
69172;SDS011;56280;49.662;8.408;2023-06-22T10:08:53;9.93;;;7.50;;
69172;SDS011;56280;49.662;8.408;2023-06-22T10:11:18;11.83;;;6.87;;
69172;SDS011;56280;49.662;8.408;2023-06-22T10:13:43;9.70;;;6.90;;
69172;SDS011;56280;49.662;8.408;2023-06-22T10:16:09;10.13;;;6.73;;
69172;SDS011;56280;49.662;8.408;2023-06-22T10:18:34;9.13;;;6.20;;
69172;SDS011;56280;49.662;8.408;2023-06-22T10:21:00;8.67;;;6.37;;
69172;SDS011;56280;49.662;8.408;2023-06-22T10:23:25;9.53;;;6.27;;
69172;SDS011;56280;49.662;8.408;2023-06-22T10:25:50;10.52;;;6.10;;
69172;SDS011;56280;49.662;8.408;2023-06-22T10:28:16;9.60;;;6.18;;
69172;SDS011;56280;49.662;8.408;2023-06-22T10:30:41;9.63;;;6.10;;
69172;SDS011;56280;49.662;8.408;2023-06-22T10:33:08;13.10;;;6.17;;
69172;SDS011;56280;49.662;8.408;2023-06-22T10:35:34;9.40;;;6.30;;
69172;SDS011;56280;49.662;8.408;2023-06-22T10:37:59;9.60;;;5.85;;
69172;SDS011;56280;49.662;8.408;2023-06-22T10:40:25;10.50;;;6.20;;
69172;SDS011;56280;49.662;8.408;2023-06-22T10:42:50;11.73;;;6.07;;
69172;SDS011;56280;49.662;8.408;2023-06-22T10:45:15;12.03;;;6.00;;
69172;SDS011;56280;49.662;8.408;2023-06-22T10:47:41;9.93;;;6.07;;
69172;SDS011;56280;49.662;8.408;2023-06-22T10:50:09;8.75;;;5.93;;
69172;SDS011;56280;49.662;8.408;2023-06-22T10:52:34;9.70;;;6.13;;
69172;SDS011;56280;49.662;8.408;2023-06-22T10:55:00;10.73;;;6.23;;
69172;SDS011;56280;49.662;8.408;2023-06-22T10:57:25;10.65;;;6.20;;
69172;SDS011;56280;49.662;8.408;2023-06-22T10:59:50;12.75;;;6.35;;
69172;SDS011;56280;49.662;8.408;2023-06-22T11:02:16;9.80;;;5.80;;
69172;SDS011;56280;49.662;8.408;2023-06-22T11:04:41;8.87;;;6.00;;
69172;SDS011;56280;49.662;8.408;2023-06-22T11:07:06;9.50;;;6.30;;
69172;SDS011;56280;49.662;8.408;2023-06-22T11:09:32;9.50;;;6.23;;
69172;SDS011;56280;49.662;8.408;2023-06-22T11:11:57;11.33;;;6.13;;
69172;SDS011;56280;49.662;8.408;2023-06-22T11:14:23;10.43;;;6.18;;
69172;SDS011;56280;49.662;8.408;2023-06-22T11:16:49;11.63;;;6.00;;
69172;SDS011;56280;49.662;8.408;2023-06-22T11:19:14;10.27;;;5.57;;
69172;SDS011;56280;49.662;8.408;2023-06-22T11:21:40;11.53;;;5.97;;
69172;SDS011;56280;49.662;8.408;2023-06-22T11:24:05;10.77;;;6.00;;
69172;SDS011;56280;49.662;8.408;2023-06-22T11:26:31;10.50;;;5.50;;
69172;SDS011;56280;49.662;8.408;2023-06-22T11:28:56;10.40;;;5.73;;
69172;SDS011;56280;49.662;8.408;2023-06-22T11:31:22;10.90;;;5.57;;
69172;SDS011;56280;49.662;8.408;2023-06-22T11:33:47;9.30;;;5.70;;
69172;SDS011;56280;49.662;8.408;2023-06-22T11:36:13;10.80;;;5.40;;
69172;SDS011;56280;49.662;8.408;2023-06-22T11:38:39;10.00;;;5.68;;
69172;SDS011;56280;49.662;8.408;2023-06-22T11:41:05;10.57;;;5.63;;
69172;SDS011;56280;49.662;8.408;2023-06-22T11:43:31;12.82;;;5.85;;
69172;SDS011;56280;49.662;8.408;2023-06-22T11:45:56;9.87;;;5.77;;
69172;SDS011;56280;49.662;8.408;2023-06-22T11:48:23;10.45;;;5.65;;
69172;SDS011;56280;49.662;8.408;2023-06-22T11:50:49;10.18;;;5.90;;
69172;SDS011;56280;49.662;8.408;2023-06-22T11:53:14;10.90;;;5.70;;
69172;SDS011;56280;49.662;8.408;2023-06-22T11:55:41;10.20;;;5.88;;
69172;SDS011;56280;49.662;8.408;2023-06-22T11:58:07;9.87;;;5.67;;
69172;SDS011;56280;49.662;8.408;2023-06-22T12:00:33;10.55;;;6.00;;
69172;SDS011;56280;49.662;8.408;2023-06-22T12:02:58;9.80;;;5.80;;
69172;SDS011;56280;49.662;8.408;2023-06-22T12:05:24;10.17;;;6.10;;
69172;SDS011;56280;49.662;8.408;2023-06-22T12:07:49;10.10;;;5.73;;
69172;SDS011;56280;49.662;8.408;2023-06-22T12:10:17;9.90;;;5.88;;
69172;SDS011;56280;49.662;8.408;2023-06-22T12:12:43;9.67;;;5.80;;
69172;SDS011;56280;49.662;8.408;2023-06-22T12:15:09;10.73;;;5.73;;
69172;SDS011;56280;49.662;8.408;2023-06-22T12:17:35;11.10;;;5.60;;
69172;SDS011;56280;49.662;8.408;2023-06-22T12:20:00;11.53;;;5.43;;
69172;SDS011;56280;49.662;8.408;2023-06-22T12:22:26;9.85;;;5.68;;
69172;SDS011;56280;49.662;8.408;2023-06-22T12:24:52;9.53;;;5.50;;
69172;SDS011;56280;49.662;8.408;2023-06-22T12:27:17;10.43;;;5.43;;
69172;SDS011;56280;49.662;8.408;2023-06-22T12:29:43;10.07;;;5.80;;
69172;SDS011;56280;49.662;8.408;2023-06-22T12:32:10;12.50;;;6.00;;
69172;SDS011;56280;49.662;8.408;2023-06-22T12:34:38;11.43;;;6.10;;
69172;SDS011;56280;49.662;8.408;2023-06-22T12:37:03;10.57;;;6.00;;
69172;SDS011;56280;49.662;8.408;2023-06-22T12:39:30;10.97;;;5.80;;
69172;SDS011;56280;49.662;8.408;2023-06-22T12:41:56;10.98;;;6.25;;
69172;SDS011;56280;49.662;8.408;2023-06-22T12:44:21;11.40;;;6.18;;
69172;SDS011;56280;49.662;8.408;2023-06-22T12:46:46;11.98;;;6.22;;
69172;SDS011;56280;49.662;8.408;2023-06-22T12:49:12;12.40;;;6.03;;
69172;SDS011;56280;49.662;8.408;2023-06-22T12:51:39;12.53;;;6.33;;
69172;SDS011;56280;49.662;8.408;2023-06-22T12:54:06;10.23;;;6.00;;
69172;SDS011;56280;49.662;8.408;2023-06-22T12:56:31;12.23;;;6.07;;
69172;SDS011;56280;49.662;8.408;2023-06-22T12:58:57;11.13;;;6.13;;
69172;SDS011;56280;49.662;8.408;2023-06-22T13:01:22;11.83;;;6.00;;
69172;SDS011;56280;49.662;8.408;2023-06-22T13:03:47;11.85;;;5.85;;
69172;SDS011;56280;49.662;8.408;2023-06-22T13:06:13;12.80;;;6.40;;
69172;SDS011;56280;49.662;8.408;2023-06-22T13:08:38;11.15;;;5.82;;
69172;SDS011;56280;49.662;8.408;2023-06-22T13:11:03;13.98;;;6.07;;
69172;SDS011;56280;49.662;8.408;2023-06-22T13:13:29;10.60;;;6.03;;
69172;SDS011;56280;49.662;8.408;2023-06-22T13:15:54;9.97;;;5.60;;
69172;SDS011;56280;49.662;8.408;2023-06-22T13:18:19;11.47;;;5.80;;
69172;SDS011;56280;49.662;8.408;2023-06-22T13:20:44;11.90;;;6.00;;
69172;SDS011;56280;49.662;8.408;2023-06-22T13:23:10;11.18;;;5.57;;
69172;SDS011;56280;49.662;8.408;2023-06-22T13:25:36;10.20;;;5.57;;
69172;SDS011;56280;49.662;8.408;2023-06-22T13:28:01;10.17;;;5.83;;
69172;SDS011;56280;49.662;8.408;2023-06-22T13:30:26;13.50;;;6.00;;
69172;SDS011;56280;49.662;8.408;2023-06-22T13:32:51;9.47;;;5.37;;
69172;SDS011;56280;49.662;8.408;2023-06-22T13:35:17;14.77;;;5.60;;
69172;SDS011;56280;49.662;8.408;2023-06-22T13:37:42;13.07;;;5.70;;
69172;SDS011;56280;49.662;8.408;2023-06-22T13:40:07;11.83;;;5.83;;
69172;SDS011;56280;49.662;8.408;2023-06-22T13:42:33;10.63;;;5.80;;
69172;SDS011;56280;49.662;8.408;2023-06-22T13:44:59;12.15;;;5.63;;
69172;SDS011;56280;49.662;8.408;2023-06-22T13:47:24;12.53;;;5.63;;
69172;SDS011;56280;49.662;8.408;2023-06-22T13:49:49;10.73;;;5.80;;
69172;SDS011;56280;49.662;8.408;2023-06-22T13:52:14;11.50;;;5.77;;
69172;SDS011;56280;49.662;8.408;2023-06-22T13:54:40;10.90;;;5.43;;
69172;SDS011;56280;49.662;8.408;2023-06-22T13:57:05;12.10;;;5.63;;
69172;SDS011;56280;49.662;8.408;2023-06-22T13:59:31;12.00;;;5.33;;
69172;SDS011;56280;49.662;8.408;2023-06-22T14:01:56;13.03;;;5.90;;
69172;SDS011;56280;49.662;8.408;2023-06-22T14:04:22;13.83;;;5.80;;
69172;SDS011;56280;49.662;8.408;2023-06-22T14:06:48;13.40;;;5.57;;
69172;SDS011;56280;49.662;8.408;2023-06-22T14:09:13;14.33;;;5.50;;
69172;SDS011;56280;49.662;8.408;2023-06-22T14:11:38;10.10;;;5.40;;
69172;SDS011;56280;49.662;8.408;2023-06-22T14:14:03;12.23;;;5.63;;
69172;SDS011;56280;49.662;8.408;2023-06-22T14:16:29;13.67;;;5.90;;
69172;SDS011;56280;49.662;8.408;2023-06-22T14:18:54;12.23;;;5.53;;
69172;SDS011;56280;49.662;8.408;2023-06-22T14:21:19;12.10;;;5.67;;
69172;SDS011;56280;49.662;8.408;2023-06-22T14:23:45;10.27;;;5.40;;
69172;SDS011;56280;49.662;8.408;2023-06-22T14:26:14;10.57;;;5.38;;
69172;SDS011;56280;49.662;8.408;2023-06-22T14:28:42;12.75;;;5.20;;
69172;SDS011;56280;49.662;8.408;2023-06-22T14:31:09;11.95;;;5.38;;
69172;SDS011;56280;49.662;8.408;2023-06-22T14:33:34;12.27;;;5.37;;
69172;SDS011;56280;49.662;8.408;2023-06-22T14:35:59;9.17;;;5.13;;
69172;SDS011;56280;49.662;8.408;2023-06-22T14:38:24;11.73;;;5.50;;
69172;SDS011;56280;49.662;8.408;2023-06-22T14:40:50;11.40;;;5.57;;
69172;SDS011;56280;49.662;8.408;2023-06-22T14:43:15;12.87;;;5.80;;
69172;SDS011;56280;49.662;8.408;2023-06-22T14:45:40;13.57;;;5.90;;
69172;SDS011;56280;49.662;8.408;2023-06-22T14:48:06;12.88;;;5.70;;
69172;SDS011;56280;49.662;8.408;2023-06-22T14:50:31;11.88;;;5.72;;
69172;SDS011;56280;49.662;8.408;2023-06-22T14:52:57;11.87;;;5.90;;
69172;SDS011;56280;49.662;8.408;2023-06-22T14:55:22;12.17;;;6.23;;
69172;SDS011;56280;49.662;8.408;2023-06-22T14:57:47;13.30;;;5.97;;
69172;SDS011;56280;49.662;8.408;2023-06-22T15:00:13;11.97;;;5.73;;
69172;SDS011;56280;49.662;8.408;2023-06-22T15:02:38;10.57;;;6.10;;
69172;SDS011;56280;49.662;8.408;2023-06-22T15:05:03;13.70;;;6.03;;
69172;SDS011;56280;49.662;8.408;2023-06-22T15:07:29;13.37;;;6.10;;
69172;SDS011;56280;49.662;8.408;2023-06-22T15:09:55;12.60;;;6.13;;
69172;SDS011;56280;49.662;8.408;2023-06-22T15:12:20;10.50;;;5.60;;
69172;SDS011;56280;49.662;8.408;2023-06-22T15:14:45;13.73;;;6.20;;
69172;SDS011;56280;49.662;8.408;2023-06-22T15:17:10;11.03;;;5.43;;
69172;SDS011;56280;49.662;8.408;2023-06-22T15:19:39;12.77;;;6.22;;
69172;SDS011;56280;49.662;8.408;2023-06-22T15:22:04;11.17;;;6.43;;
69172;SDS011;56280;49.662;8.408;2023-06-22T15:24:31;12.30;;;6.60;;
69172;SDS011;56280;49.662;8.408;2023-06-22T15:26:57;13.27;;;6.50;;
69172;SDS011;56280;49.662;8.408;2023-06-22T15:29:22;11.17;;;6.37;;
69172;SDS011;56280;49.662;8.408;2023-06-22T15:31:47;14.67;;;6.63;;
69172;SDS011;56280;49.662;8.408;2023-06-22T15:34:13;13.17;;;6.10;;
69172;SDS011;56280;49.662;8.408;2023-06-22T15:36:38;9.88;;;5.97;;
69172;SDS011;56280;49.662;8.408;2023-06-22T15:39:04;13.20;;;5.90;;
69172;SDS011;56280;49.662;8.408;2023-06-22T15:41:29;12.27;;;6.17;;
69172;SDS011;56280;49.662;8.408;2023-06-22T15:43:54;13.35;;;6.10;;
69172;SDS011;56280;49.662;8.408;2023-06-22T15:46:20;14.85;;;6.10;;
69172;SDS011;56280;49.662;8.408;2023-06-22T15:48:46;18.50;;;8.40;;
69172;SDS011;56280;49.662;8.408;2023-06-22T15:51:11;25.63;;;10.13;;
69172;SDS011;56280;49.662;8.408;2023-06-22T15:53:36;15.63;;;6.82;;
69172;SDS011;56280;49.662;8.408;2023-06-22T15:56:02;14.67;;;6.67;;
69172;SDS011;56280;49.662;8.408;2023-06-22T15:58:29;14.47;;;6.80;;
69172;SDS011;56280;49.662;8.408;2023-06-22T16:00:54;15.00;;;6.85;;
69172;SDS011;56280;49.662;8.408;2023-06-22T16:03:20;14.60;;;6.47;;
69172;SDS011;56280;49.662;8.408;2023-06-22T16:05:45;16.05;;;7.35;;
69172;SDS011;56280;49.662;8.408;2023-06-22T16:08:15;18.80;;;7.83;;
69172;SDS011;56280;49.662;8.408;2023-06-22T16:10:41;12.20;;;7.15;;
69172;SDS011;56280;49.662;8.408;2023-06-22T16:13:06;16.40;;;7.67;;
69172;SDS011;56280;49.662;8.408;2023-06-22T16:15:32;13.80;;;6.57;;
69172;SDS011;56280;49.662;8.408;2023-06-22T16:17:57;14.03;;;6.73;;
69172;SDS011;56280;49.662;8.408;2023-06-22T16:20:25;12.55;;;6.45;;
69172;SDS011;56280;49.662;8.408;2023-06-22T16:22:50;13.37;;;6.83;;
69172;SDS011;56280;49.662;8.408;2023-06-22T16:25:21;12.88;;;6.53;;
69172;SDS011;56280;49.662;8.408;2023-06-22T16:27:50;12.33;;;6.37;;
69172;SDS011;56280;49.662;8.408;2023-06-22T16:30:20;13.80;;;6.50;;
69172;SDS011;56280;49.662;8.408;2023-06-22T16:32:52;11.48;;;6.18;;
69172;SDS011;56280;49.662;8.408;2023-06-22T16:35:24;12.32;;;6.13;;
69172;SDS011;56280;49.662;8.408;2023-06-22T16:37:54;11.97;;;6.20;;
69172;SDS011;56280;49.662;8.408;2023-06-22T16:40:25;14.43;;;6.00;;
69172;SDS011;56280;49.662;8.408;2023-06-22T16:42:53;11.25;;;5.57;;
69172;SDS011;56280;49.662;8.408;2023-06-22T16:45:19;9.93;;;4.50;;
69172;SDS011;56280;49.662;8.408;2023-06-22T16:47:45;12.93;;;5.43;;
69172;SDS011;56280;49.662;8.408;2023-06-22T16:50:12;19.73;;;5.60;;
69172;SDS011;56280;49.662;8.408;2023-06-22T16:52:37;16.42;;;5.90;;
69172;SDS011;56280;49.662;8.408;2023-06-22T16:55:06;13.43;;;4.17;;
69172;SDS011;56280;49.662;8.408;2023-06-22T16:57:32;11.85;;;4.10;;
69172;SDS011;56280;49.662;8.408;2023-06-22T16:59:58;13.43;;;4.00;;
69172;SDS011;56280;49.662;8.408;2023-06-22T17:02:24;10.93;;;3.60;;
69172;SDS011;56280;49.662;8.408;2023-06-22T17:04:54;12.05;;;3.50;;
69172;SDS011;56280;49.662;8.408;2023-06-22T17:07:21;8.57;;;3.20;;
69172;SDS011;56280;49.662;8.408;2023-06-22T17:09:49;11.93;;;3.80;;
69172;SDS011;56280;49.662;8.408;2023-06-22T17:12:15;9.57;;;3.40;;
69172;SDS011;56280;49.662;8.408;2023-06-22T17:14:43;8.77;;;3.22;;
69172;SDS011;56280;49.662;8.408;2023-06-22T17:17:09;8.52;;;3.40;;
69172;SDS011;56280;49.662;8.408;2023-06-22T17:19:36;9.52;;;3.50;;
69172;SDS011;56280;49.662;8.408;2023-06-22T17:22:01;9.90;;;3.90;;
69172;SDS011;56280;49.662;8.408;2023-06-22T17:24:27;9.00;;;3.80;;
69172;SDS011;56280;49.662;8.408;2023-06-22T17:26:53;12.27;;;3.95;;
69172;SDS011;56280;49.662;8.408;2023-06-22T17:29:19;9.88;;;3.80;;
69172;SDS011;56280;49.662;8.408;2023-06-22T17:31:45;10.82;;;3.50;;
69172;SDS011;56280;49.662;8.408;2023-06-22T17:34:15;10.02;;;3.70;;
69172;SDS011;56280;49.662;8.408;2023-06-22T17:36:49;9.83;;;3.70;;
69172;SDS011;56280;49.662;8.408;2023-06-22T17:39:18;9.48;;;3.70;;
69172;SDS011;56280;49.662;8.408;2023-06-22T17:41:45;12.38;;;3.47;;
69172;SDS011;56280;49.662;8.408;2023-06-22T17:44:12;10.77;;;3.60;;
69172;SDS011;56280;49.662;8.408;2023-06-22T17:46:39;10.20;;;3.60;;
69172;SDS011;56280;49.662;8.408;2023-06-22T17:49:06;11.40;;;3.77;;
69172;SDS011;56280;49.662;8.408;2023-06-22T17:51:32;11.25;;;3.83;;
69172;SDS011;56280;49.662;8.408;2023-06-22T17:53:58;11.02;;;4.30;;
69172;SDS011;56280;49.662;8.408;2023-06-22T17:56:23;10.00;;;4.00;;
69172;SDS011;56280;49.662;8.408;2023-06-22T17:58:51;11.77;;;4.30;;
69172;SDS011;56280;49.662;8.408;2023-06-22T18:01:27;11.13;;;4.30;;
69172;SDS011;56280;49.662;8.408;2023-06-22T18:03:56;9.60;;;4.30;;
69172;SDS011;56280;49.662;8.408;2023-06-22T18:06:24;10.55;;;3.97;;
69172;SDS011;56280;49.662;8.408;2023-06-22T18:08:52;9.20;;;3.97;;
69172;SDS011;56280;49.662;8.408;2023-06-22T18:11:21;11.20;;;4.30;;
69172;SDS011;56280;49.662;8.408;2023-06-22T18:13:51;10.30;;;4.25;;
69172;SDS011;56280;49.662;8.408;2023-06-22T18:16:18;10.32;;;4.13;;
69172;SDS011;56280;49.662;8.408;2023-06-22T18:18:44;9.93;;;3.90;;
69172;SDS011;56280;49.662;8.408;2023-06-22T18:21:11;8.17;;;4.00;;
69172;SDS011;56280;49.662;8.408;2023-06-22T18:23:37;10.73;;;4.10;;
69172;SDS011;56280;49.662;8.408;2023-06-22T18:26:03;9.65;;;4.07;;
69172;SDS011;56280;49.662;8.408;2023-06-22T18:28:29;10.25;;;3.70;;
69172;SDS011;56280;49.662;8.408;2023-06-22T18:30:57;10.35;;;3.80;;
69172;SDS011;56280;49.662;8.408;2023-06-22T18:33:22;10.30;;;3.83;;
69172;SDS011;56280;49.662;8.408;2023-06-22T18:35:48;8.47;;;4.00;;
69172;SDS011;56280;49.662;8.408;2023-06-22T18:38:16;10.15;;;3.88;;